sensor_id;sensor_type;location;lat;lon;timestamp;pressure;altitude;pressure_sealevel;temperature
67829;BMP280;54626;45.436;10.942;2023-02-23T00:01:58;100616.75;;;8.95
67829;BMP280;54626;45.436;10.942;2023-02-23T00:04:31;100617.00;;;8.97
67829;BMP280;54626;45.436;10.942;2023-02-23T00:06:58;100624.16;;;9.05
67829;BMP280;54626;45.436;10.942;2023-02-23T00:09:25;100616.13;;;9.07
67829;BMP280;54626;45.436;10.942;2023-02-23T00:11:56;100611.94;;;9.19
67829;BMP280;54626;45.436;10.942;2023-02-23T00:14:27;100616.84;;;9.26
67829;BMP280;54626;45.436;10.942;2023-02-23T00:16:54;100616.56;;;9.29
67829;BMP280;54626;45.436;10.942;2023-02-23T00:19:22;100611.69;;;9.35
67829;BMP280;54626;45.436;10.942;2023-02-23T00:21:51;100603.25;;;9.46
67829;BMP280;54626;45.436;10.942;2023-02-23T00:24:21;100600.63;;;9.54
67829;BMP280;54626;45.436;10.942;2023-02-23T00:26:48;100605.53;;;9.61
67829;BMP280;54626;45.436;10.942;2023-02-23T00:29:19;100608.31;;;9.61
67829;BMP280;54626;45.436;10.942;2023-02-23T00:31:56;100601.19;;;9.65
67829;BMP280;54626;45.436;10.942;2023-02-23T00:34:22;100596.41;;;9.66
67829;BMP280;54626;45.436;10.942;2023-02-23T00:36:52;100598.97;;;9.64
67829;BMP280;54626;45.436;10.942;2023-02-23T00:39:23;100601.50;;;9.62
67829;BMP280;54626;45.436;10.942;2023-02-23T00:41:55;100599.88;;;9.53
67829;BMP280;54626;45.436;10.942;2023-02-23T00:44:22;100594.25;;;9.46
67829;BMP280;54626;45.436;10.942;2023-02-23T00:46:49;100588.50;;;9.44
67829;BMP280;54626;45.436;10.942;2023-02-23T00:49:18;100579.69;;;9.45
67829;BMP280;54626;45.436;10.942;2023-02-23T00:51:44;100580.56;;;9.53
67829;BMP280;54626;45.436;10.942;2023-02-23T00:54:16;100586.72;;;9.59
67829;BMP280;54626;45.436;10.942;2023-02-23T00:56:42;100584.94;;;9.62
67829;BMP280;54626;45.436;10.942;2023-02-23T00:59:09;100583.34;;;9.66
67829;BMP280;54626;45.436;10.942;2023-02-23T01:01:36;100577.75;;;9.72
67829;BMP280;54626;45.436;10.942;2023-02-23T01:04:04;100584.44;;;9.76
67829;BMP280;54626;45.436;10.942;2023-02-23T01:06:31;100576.59;;;9.80
67829;BMP280;54626;45.436;10.942;2023-02-23T01:08:57;100566.50;;;9.83
67829;BMP280;54626;45.436;10.942;2023-02-23T01:11:25;100571.72;;;9.86
67829;BMP280;54626;45.436;10.942;2023-02-23T01:13:57;100577.47;;;9.88
67829;BMP280;54626;45.436;10.942;2023-02-23T01:16:28;100580.22;;;9.88
67829;BMP280;54626;45.436;10.942;2023-02-23T01:18:56;100562.97;;;9.82
67829;BMP280;54626;45.436;10.942;2023-02-23T01:21:29;100582.25;;;9.88
67829;BMP280;54626;45.436;10.942;2023-02-23T01:23:58;100573.75;;;9.86
67829;BMP280;54626;45.436;10.942;2023-02-23T01:26:27;100572.75;;;9.83
67829;BMP280;54626;45.436;10.942;2023-02-23T01:28:57;100581.81;;;9.84
67829;BMP280;54626;45.436;10.942;2023-02-23T01:31:24;100570.56;;;9.82
67829;BMP280;54626;45.436;10.942;2023-02-23T01:33:55;100565.75;;;9.82
67829;BMP280;54626;45.436;10.942;2023-02-23T01:36:23;100567.47;;;9.85
67829;BMP280;54626;45.436;10.942;2023-02-23T01:38:51;100565.69;;;9.88
67829;BMP280;54626;45.436;10.942;2023-02-23T01:41:22;100560.16;;;9.88
67829;BMP280;54626;45.436;10.942;2023-02-23T01:46:43;100553.56;;;9.90
67829;BMP280;54626;45.436;10.942;2023-02-23T01:49:27;100542.94;;;9.94
67829;BMP280;54626;45.436;10.942;2023-02-23T01:52:02;100543.69;;;9.95
67829;BMP280;54626;45.436;10.942;2023-02-23T01:54:32;100545.94;;;9.96
67829;BMP280;54626;45.436;10.942;2023-02-23T01:57:06;100538.56;;;9.99
67829;BMP280;54626;45.436;10.942;2023-02-23T01:59:42;100532.00;;;10.02
67829;BMP280;54626;45.436;10.942;2023-02-23T02:02:09;100538.38;;;9.97
67829;BMP280;54626;45.436;10.942;2023-02-23T02:04:36;100538.56;;;9.99
67829;BMP280;54626;45.436;10.942;2023-02-23T02:07:20;100541.13;;;9.97
67829;BMP280;54626;45.436;10.942;2023-02-23T02:09:51;100545.59;;;10.00
67829;BMP280;54626;45.436;10.942;2023-02-23T02:12:37;100532.75;;;10.02
67829;BMP280;54626;45.436;10.942;2023-02-23T02:15:06;100530.00;;;10.02
67829;BMP280;54626;45.436;10.942;2023-02-23T02:34:56;100518.63;;;10.06
67829;BMP280;54626;45.436;10.942;2023-02-23T02:37:35;100520.28;;;10.09
67829;BMP280;54626;45.436;10.942;2023-02-23T02:43:14;100515.41;;;10.15
67829;BMP280;54626;45.436;10.942;2023-02-23T02:48:46;100510.63;;;10.15
67829;BMP280;54626;45.436;10.942;2023-02-23T02:51:26;100519.66;;;10.16
67829;BMP280;54626;45.436;10.942;2023-02-23T02:54:14;100513.41;;;10.15
67829;BMP280;54626;45.436;10.942;2023-02-23T02:56:47;100514.88;;;10.16
67829;BMP280;54626;45.436;10.942;2023-02-23T02:59:18;100517.09;;;10.18
67829;BMP280;54626;45.436;10.942;2023-02-23T03:02:05;100510.09;;;10.17
67829;BMP280;54626;45.436;10.942;2023-02-23T03:04:50;100510.56;;;10.21
67829;BMP280;54626;45.436;10.942;2023-02-23T03:07:44;100508.53;;;10.21
67829;BMP280;54626;45.436;10.942;2023-02-23T03:17:04;100513.94;;;10.27
67829;BMP280;54626;45.436;10.942;2023-02-23T03:20:13;100514.69;;;10.27
67829;BMP280;54626;45.436;10.942;2023-02-23T03:23:17;100517.66;;;10.29
67829;BMP280;54626;45.436;10.942;2023-02-23T03:26:13;100517.22;;;10.25
67829;BMP280;54626;45.436;10.942;2023-02-23T03:29:07;100517.66;;;10.29
67829;BMP280;54626;45.436;10.942;2023-02-23T03:32:00;100521.91;;;10.30
67829;BMP280;54626;45.436;10.942;2023-02-23T03:34:56;100507.38;;;10.30
67829;BMP280;54626;45.436;10.942;2023-02-23T03:37:48;100507.38;;;10.30
67829;BMP280;54626;45.436;10.942;2023-02-23T03:40:36;100510.84;;;10.30
67829;BMP280;54626;45.436;10.942;2023-02-23T03:43:26;100508.41;;;10.27
67829;BMP280;54626;45.436;10.942;2023-02-23T03:46:15;100511.91;;;10.27
67829;BMP280;54626;45.436;10.942;2023-02-23T03:49:02;100504.69;;;10.24
67829;BMP280;54626;45.436;10.942;2023-02-23T03:51:58;100510.56;;;10.21
67829;BMP280;54626;45.436;10.942;2023-02-23T03:54:51;100513.84;;;10.19
67829;BMP280;54626;45.436;10.942;2023-02-23T03:57:38;100517.66;;;10.16
67829;BMP280;54626;45.436;10.942;2023-02-23T04:00:29;100517.75;;;10.11
67829;BMP280;54626;45.436;10.942;2023-02-23T04:03:16;100520.22;;;10.14
67829;BMP280;54626;45.436;10.942;2023-02-23T04:06:06;100519.16;;;10.04
67829;BMP280;54626;45.436;10.942;2023-02-23T04:08:53;100521.38;;;10.06
67829;BMP280;54626;45.436;10.942;2023-02-23T04:15:26;100522.00;;;10.12
67829;BMP280;54626;45.436;10.942;2023-02-23T04:17:55;100524.78;;;10.12
67829;BMP280;54626;45.436;10.942;2023-02-23T04:20:21;100520.53;;;10.11
67829;BMP280;54626;45.436;10.942;2023-02-23T04:22:48;100527.03;;;10.13
67829;BMP280;54626;45.436;10.942;2023-02-23T04:25:14;100524.91;;;10.06
67829;BMP280;54626;45.436;10.942;2023-02-23T04:27:43;100523.59;;;10.07
67829;BMP280;54626;45.436;10.942;2023-02-23T04:30:10;100519.88;;;10.05
67829;BMP280;54626;45.436;10.942;2023-02-23T04:32:37;100525.75;;;10.01
67829;BMP280;54626;45.436;10.942;2023-02-23T04:35:04;100523.47;;;10.00
67829;BMP280;54626;45.436;10.942;2023-02-23T04:37:30;100523.06;;;9.96
67829;BMP280;54626;45.436;10.942;2023-02-23T04:39:57;100531.34;;;9.83
67829;BMP280;54626;45.436;10.942;2023-02-23T04:42:23;100522.41;;;9.64
67829;BMP280;54626;45.436;10.942;2023-02-23T04:44:50;100529.91;;;9.51
67829;BMP280;54626;45.436;10.942;2023-02-23T04:47:17;100530.63;;;9.38
67829;BMP280;54626;45.436;10.942;2023-02-23T04:49:44;100528.47;;;9.31
67829;BMP280;54626;45.436;10.942;2023-02-23T04:52:10;100535.06;;;9.28
67829;BMP280;54626;45.436;10.942;2023-02-23T04:54:37;100533.34;;;9.25
67829;BMP280;54626;45.436;10.942;2023-02-23T04:57:04;100536.53;;;9.29
67829;BMP280;54626;45.436;10.942;2023-02-23T04:59:37;100539.72;;;9.33
67829;BMP280;54626;45.436;10.942;2023-02-23T05:02:03;100531.28;;;9.44
67829;BMP280;54626;45.436;10.942;2023-02-23T05:04:33;100533.53;;;9.46
67829;BMP280;54626;45.436;10.942;2023-02-23T05:07:03;100533.59;;;9.40
67829;BMP280;54626;45.436;10.942;2023-02-23T05:09:30;100529.94;;;9.32
67829;BMP280;54626;45.436;10.942;2023-02-23T05:11:58;100534.84;;;9.39
67829;BMP280;54626;45.436;10.942;2023-02-23T05:14:27;100533.41;;;9.51
67829;BMP280;54626;45.436;10.942;2023-02-23T05:16:53;100529.19;;;9.63
67829;BMP280;54626;45.436;10.942;2023-02-23T05:19:20;100526.44;;;9.76
67829;BMP280;54626;45.436;10.942;2023-02-23T05:21:52;100529.84;;;9.82
67829;BMP280;54626;45.436;10.942;2023-02-23T05:24:24;100535.81;;;9.86
67829;BMP280;54626;45.436;10.942;2023-02-23T05:26:51;100530.72;;;9.90
67829;BMP280;54626;45.436;10.942;2023-02-23T05:29:18;100521.38;;;9.93
67829;BMP280;54626;45.436;10.942;2023-02-23T05:31:46;100518.59;;;9.93
67829;BMP280;54626;45.436;10.942;2023-02-23T05:34:14;100527.31;;;9.97
67829;BMP280;54626;45.436;10.942;2023-02-23T05:36:44;100525.09;;;9.95
67829;BMP280;54626;45.436;10.942;2023-02-23T05:39:10;100525.09;;;9.95
67829;BMP280;54626;45.436;10.942;2023-02-23T05:41:37;100522.63;;;9.92
67829;BMP280;54626;45.436;10.942;2023-02-23T05:44:05;100527.44;;;9.91
67829;BMP280;54626;45.436;10.942;2023-02-23T05:46:31;100526.47;;;9.89
67829;BMP280;54626;45.436;10.942;2023-02-23T05:48:58;100530.72;;;9.90
67829;BMP280;54626;45.436;10.942;2023-02-23T05:51:28;100525.94;;;9.90
67829;BMP280;54626;45.436;10.942;2023-02-23T05:53:54;100523.72;;;9.89
67829;BMP280;54626;45.436;10.942;2023-02-23T05:56:21;100532.94;;;9.91
67829;BMP280;54626;45.436;10.942;2023-02-23T05:58:55;100532.19;;;9.91
67829;BMP280;54626;45.436;10.942;2023-02-23T06:01:27;100524.47;;;9.89
67829;BMP280;54626;45.436;10.942;2023-02-23T06:03:54;100525.53;;;9.87
67829;BMP280;54626;45.436;10.942;2023-02-23T06:06:22;100536.34;;;9.85
67829;BMP280;54626;45.436;10.942;2023-02-23T06:08:51;100534.31;;;9.85
67829;BMP280;54626;45.436;10.942;2023-02-23T06:11:18;100533.81;;;9.87
67829;BMP280;54626;45.436;10.942;2023-02-23T06:13:53;100536.56;;;9.87
67829;BMP280;54626;45.436;10.942;2023-02-23T06:16:20;100536.03;;;9.88
67829;BMP280;54626;45.436;10.942;2023-02-23T06:18:47;100534.94;;;9.91
67829;BMP280;54626;45.436;10.942;2023-02-23T06:21:13;100534.75;;;9.89
67829;BMP280;54626;45.436;10.942;2023-02-23T06:23:42;100547.94;;;9.96
67829;BMP280;54626;45.436;10.942;2023-02-23T06:26:09;100551.47;;;9.96
67829;BMP280;54626;45.436;10.942;2023-02-23T06:28:35;100554.63;;;10.00
67829;BMP280;54626;45.436;10.942;2023-02-23T06:31:02;100550.59;;;10.01
67829;BMP280;54626;45.436;10.942;2023-02-23T06:33:28;100561.53;;;10.07
67829;BMP280;54626;45.436;10.942;2023-02-23T06:35:55;100552.94;;;10.10
67829;BMP280;54626;45.436;10.942;2023-02-23T06:38:24;100561.97;;;10.11
67829;BMP280;54626;45.436;10.942;2023-02-23T06:41:06;100563.66;;;10.14
67829;BMP280;54626;45.436;10.942;2023-02-23T06:43:33;100559.81;;;10.17
67829;BMP280;54626;45.436;10.942;2023-02-23T06:46:00;100562.72;;;10.11
67829;BMP280;54626;45.436;10.942;2023-02-23T06:48:27;100567.47;;;10.11
67829;BMP280;54626;45.436;10.942;2023-02-23T06:50:53;100570.47;;;10.13
67829;BMP280;54626;45.436;10.942;2023-02-23T06:53:19;100578.66;;;10.18
67829;BMP280;54626;45.436;10.942;2023-02-23T06:55:50;100576.88;;;10.21
67829;BMP280;54626;45.436;10.942;2023-02-23T06:58:17;100581.53;;;10.26
67829;BMP280;54626;45.436;10.942;2023-02-23T07:00:43;100589.09;;;10.38
67829;BMP280;54626;45.436;10.942;2023-02-23T07:03:13;100585.47;;;10.43
67829;BMP280;54626;45.436;10.942;2023-02-23T07:05:44;100581.44;;;10.44
67829;BMP280;54626;45.436;10.942;2023-02-23T07:08:11;100591.31;;;10.53
67829;BMP280;54626;45.436;10.942;2023-02-23T07:10:37;100586.53;;;10.53
67829;BMP280;54626;45.436;10.942;2023-02-23T07:13:04;100580.88;;;10.59
67829;BMP280;54626;45.436;10.942;2023-02-23T07:15:31;100591.09;;;10.64
67829;BMP280;54626;45.436;10.942;2023-02-23T07:17:57;100587.25;;;10.67
67829;BMP280;54626;45.436;10.942;2023-02-23T07:20:24;100597.78;;;10.68
67829;BMP280;54626;45.436;10.942;2023-02-23T07:22:50;100600.44;;;10.73
67829;BMP280;54626;45.436;10.942;2023-02-23T07:25:17;100596.38;;;10.74
67829;BMP280;54626;45.436;10.942;2023-02-23T07:27:44;100595.84;;;10.76
67829;BMP280;54626;45.436;10.942;2023-02-23T07:30:11;100599.78;;;10.80
67829;BMP280;54626;45.436;10.942;2023-02-23T07:32:38;100595.94;;;10.83
67829;BMP280;54626;45.436;10.942;2023-02-23T07:35:06;100593.47;;;10.80
67829;BMP280;54626;45.436;10.942;2023-02-23T07:37:33;100603.50;;;10.83
67829;BMP280;54626;45.436;10.942;2023-02-23T07:39:59;100601.47;;;10.83
67829;BMP280;54626;45.436;10.942;2023-02-23T07:42:26;100611.13;;;10.90
67829;BMP280;54626;45.436;10.942;2023-02-23T07:44:55;100609.53;;;10.94
67829;BMP280;54626;45.436;10.942;2023-02-23T07:47:22;100608.91;;;11.01
67829;BMP280;54626;45.436;10.942;2023-02-23T07:49:59;100602.28;;;11.04
67829;BMP280;54626;45.436;10.942;2023-02-23T07:52:30;100610.13;;;11.13
67829;BMP280;54626;45.436;10.942;2023-02-23T07:54:56;100603.38;;;11.22
67829;BMP280;54626;45.436;10.942;2023-02-23T07:57:23;100602.72;;;11.29
67829;BMP280;54626;45.436;10.942;2023-02-23T07:59:50;100607.66;;;11.43
67829;BMP280;54626;45.436;10.942;2023-02-23T08:02:16;100600.19;;;11.51
67829;BMP280;54626;45.436;10.942;2023-02-23T08:04:46;100607.25;;;11.59
67829;BMP280;54626;45.436;10.942;2023-02-23T08:07:13;100611.56;;;11.68
67829;BMP280;54626;45.436;10.942;2023-02-23T08:09:40;100608.75;;;11.81
67829;BMP280;54626;45.436;10.942;2023-02-23T08:12:07;100602.34;;;11.93
67829;BMP280;54626;45.436;10.942;2023-02-23T08:14:34;100615.38;;;12.06
67829;BMP280;54626;45.436;10.942;2023-02-23T08:17:01;100605.22;;;12.08
67829;BMP280;54626;45.436;10.942;2023-02-23T08:19:30;100609.28;;;12.07
67829;BMP280;54626;45.436;10.942;2023-02-23T08:21:57;100617.88;;;12.24
67829;BMP280;54626;45.436;10.942;2023-02-23T08:24:26;100609.03;;;12.25
67829;BMP280;54626;45.436;10.942;2023-02-23T08:26:57;100611.50;;;12.36
67829;BMP280;54626;45.436;10.942;2023-02-23T08:29:27;100610.75;;;12.36
67829;BMP280;54626;45.436;10.942;2023-02-23T08:31:54;100616.66;;;12.32
67829;BMP280;54626;45.436;10.942;2023-02-23T08:34:22;100609.66;;;12.39
67829;BMP280;54626;45.436;10.942;2023-02-23T08:36:49;100622.66;;;12.51
67829;BMP280;54626;45.436;10.942;2023-02-23T08:39:16;100613.84;;;12.60
67829;BMP280;54626;45.436;10.942;2023-02-23T08:41:42;100621.97;;;12.58
67829;BMP280;54626;45.436;10.942;2023-02-23T08:44:09;100620.50;;;12.65
67829;BMP280;54626;45.436;10.942;2023-02-23T08:46:38;100630.50;;;12.60
67829;BMP280;54626;45.436;10.942;2023-02-23T08:49:05;100628.69;;;12.70
67829;BMP280;54626;45.436;10.942;2023-02-23T08:51:33;100632.56;;;12.67
67829;BMP280;54626;45.436;10.942;2023-02-23T08:54:00;100622.16;;;12.60
67829;BMP280;54626;45.436;10.942;2023-02-23T08:56:27;100624.97;;;12.68
67829;BMP280;54626;45.436;10.942;2023-02-23T08:58:54;100627.25;;;12.84
67829;BMP280;54626;45.436;10.942;2023-02-23T09:01:20;100632.34;;;13.00
67829;BMP280;54626;45.436;10.942;2023-02-23T09:03:47;100634.72;;;13.04
67829;BMP280;54626;45.436;10.942;2023-02-23T09:06:19;100632.53;;;13.10
67829;BMP280;54626;45.436;10.942;2023-02-23T09:08:46;100636.59;;;13.09
67829;BMP280;54626;45.436;10.942;2023-02-23T09:11:13;100634.56;;;13.09
67829;BMP280;54626;45.436;10.942;2023-02-23T09:13:39;100641.09;;;13.19
67829;BMP280;54626;45.436;10.942;2023-02-23T09:16:06;100628.81;;;13.15
67829;BMP280;54626;45.436;10.942;2023-02-23T09:18:36;100633.84;;;13.24
67829;BMP280;54626;45.436;10.942;2023-02-23T09:21:04;100638.28;;;13.12
67829;BMP280;54626;45.436;10.942;2023-02-23T09:23:36;100635.91;;;13.23
67829;BMP280;54626;45.436;10.942;2023-02-23T09:26:05;100636.25;;;13.20
67829;BMP280;54626;45.436;10.942;2023-02-23T09:28:33;100633.69;;;13.29
67829;BMP280;54626;45.436;10.942;2023-02-23T09:31:26;100644.59;;;13.35
67829;BMP280;54626;45.436;10.942;2023-02-23T09:33:53;100647.03;;;13.46
67829;BMP280;54626;45.436;10.942;2023-02-23T09:36:25;100649.63;;;13.36
67829;BMP280;54626;45.436;10.942;2023-02-23T09:38:55;100645.91;;;13.34
67829;BMP280;54626;45.436;10.942;2023-02-23T09:43:55;100648.75;;;13.56
67829;BMP280;54626;45.436;10.942;2023-02-23T09:46:34;100645.59;;;13.67
67829;BMP280;54626;45.436;10.942;2023-02-23T09:49:03;100654.28;;;13.63
67829;BMP280;54626;45.436;10.942;2023-02-23T09:51:36;100642.25;;;13.68
67829;BMP280;54626;45.436;10.942;2023-02-23T09:54:04;100650.41;;;13.74
67829;BMP280;54626;45.436;10.942;2023-02-23T09:56:39;100649.28;;;13.77
67829;BMP280;54626;45.436;10.942;2023-02-23T09:59:10;100654.09;;;13.91
67829;BMP280;54626;45.436;10.942;2023-02-23T10:04:26;100648.53;;;13.91
67829;BMP280;54626;45.436;10.942;2023-02-23T10:07:02;100647.41;;;13.94
67829;BMP280;54626;45.436;10.942;2023-02-23T10:15:26;100647.06;;;13.98
67829;BMP280;54626;45.436;10.942;2023-02-23T10:23:33;100651.13;;;13.89
67829;BMP280;54626;45.436;10.942;2023-02-23T10:26:02;100660.41;;;13.92
67829;BMP280;54626;45.436;10.942;2023-02-23T10:28:35;100667.44;;;14.00
67829;BMP280;54626;45.436;10.942;2023-02-23T10:31:32;100659.63;;;14.06
67829;BMP280;54626;45.436;10.942;2023-02-23T10:34:08;100662.06;;;13.95
67829;BMP280;54626;45.436;10.942;2023-02-23T10:36:47;100662.06;;;14.02
67829;BMP280;54626;45.436;10.942;2023-02-23T10:39:15;100654.81;;;14.14
67829;BMP280;54626;45.436;10.942;2023-02-23T10:41:42;100658.75;;;14.04
67829;BMP280;54626;45.436;10.942;2023-02-23T10:44:30;100663.56;;;14.11
67829;BMP280;54626;45.436;10.942;2023-02-23T10:47:05;100654.41;;;14.25
67829;BMP280;54626;45.436;10.942;2023-02-23T10:49:44;100655.16;;;14.40
67829;BMP280;54626;45.436;10.942;2023-02-23T10:52:14;100655.56;;;14.07
67829;BMP280;54626;45.436;10.942;2023-02-23T10:54:49;100655.03;;;14.09
67829;BMP280;54626;45.436;10.942;2023-02-23T10:57:27;100656.78;;;14.36
67829;BMP280;54626;45.436;10.942;2023-02-23T11:02:38;100656.06;;;14.35
67829;BMP280;54626;45.436;10.942;2023-02-23T11:08:08;100649.06;;;14.20
67829;BMP280;54626;45.436;10.942;2023-02-23T11:10:35;100651.81;;;14.27
67829;BMP280;54626;45.436;10.942;2023-02-23T11:13:03;100653.84;;;14.34
67829;BMP280;54626;45.436;10.942;2023-02-23T11:15:32;100642.81;;;14.58
67829;BMP280;54626;45.436;10.942;2023-02-23T11:18:21;100640.75;;;14.66
67829;BMP280;54626;45.436;10.942;2023-02-23T11:20:51;100641.50;;;14.67
67829;BMP280;54626;45.436;10.942;2023-02-23T11:23:25;100641.50;;;14.67
67829;BMP280;54626;45.436;10.942;2023-02-23T11:26:28;100628.88;;;14.66
67829;BMP280;54626;45.436;10.942;2023-02-23T11:29:00;100632.91;;;14.40
67829;BMP280;54626;45.436;10.942;2023-02-23T11:31:30;100629.09;;;14.53
67829;BMP280;54626;45.436;10.942;2023-02-23T11:34:04;100634.09;;;14.62
67829;BMP280;54626;45.436;10.942;2023-02-23T11:36:34;100627.22;;;14.63
67829;BMP280;54626;45.436;10.942;2023-02-23T11:41:42;100623.91;;;14.57
67829;BMP280;54626;45.436;10.942;2023-02-23T11:44:22;100619.09;;;14.57
67829;BMP280;54626;45.436;10.942;2023-02-23T11:46:49;100619.22;;;14.67
67829;BMP280;54626;45.436;10.942;2023-02-23T11:49:28;100617.50;;;14.79
67829;BMP280;54626;45.436;10.942;2023-02-23T11:51:56;100616.09;;;15.02
67829;BMP280;54626;45.436;10.942;2023-02-23T11:54:30;100612.25;;;14.90
67829;BMP280;54626;45.436;10.942;2023-02-23T11:56:56;100608.78;;;14.75
67829;BMP280;54626;45.436;10.942;2023-02-23T11:59:29;100611.50;;;14.90
67829;BMP280;54626;45.436;10.942;2023-02-23T12:04:39;100602.34;;;15.28
67829;BMP280;54626;45.436;10.942;2023-02-23T12:10:06;100607.94;;;15.28
67829;BMP280;54626;45.436;10.942;2023-02-23T12:12:45;100599.59;;;15.21
67829;BMP280;54626;45.436;10.942;2023-02-23T12:15:22;100600.28;;;15.53
67829;BMP280;54626;45.436;10.942;2023-02-23T12:18:01;100598.72;;;15.60
67829;BMP280;54626;45.436;10.942;2023-02-23T12:20:35;100602.78;;;15.42
67829;BMP280;54626;45.436;10.942;2023-02-23T12:23:06;100594.31;;;15.73
67829;BMP280;54626;45.436;10.942;2023-02-23T12:25:50;100590.38;;;15.35
67829;BMP280;54626;45.436;10.942;2023-02-23T12:28:35;100594.31;;;15.32
67829;BMP280;54626;45.436;10.942;2023-02-23T12:31:21;100595.19;;;15.18
67829;BMP280;54626;45.436;10.942;2023-02-23T12:33:52;100587.88;;;15.47
67829;BMP280;54626;45.436;10.942;2023-02-23T12:39:02;100579.06;;;15.74
67829;BMP280;54626;45.436;10.942;2023-02-23T12:41:41;100573.50;;;15.91
67829;BMP280;54626;45.436;10.942;2023-02-23T12:44:32;100571.28;;;15.73
67829;BMP280;54626;45.436;10.942;2023-02-23T12:47:08;100570.28;;;15.78
67829;BMP280;54626;45.436;10.942;2023-02-23T12:49:55;100575.84;;;15.44
67829;BMP280;54626;45.436;10.942;2023-02-23T12:58:49;100575.28;;;15.63
67829;BMP280;54626;45.436;10.942;2023-02-23T13:04:37;100569.94;;;15.57
67829;BMP280;54626;45.436;10.942;2023-02-23T13:07:15;100566.41;;;15.57
67829;BMP280;54626;45.436;10.942;2023-02-23T13:15:57;100570.16;;;15.76
67829;BMP280;54626;45.436;10.942;2023-02-23T13:18:31;100565.84;;;15.58
67829;BMP280;54626;45.436;10.942;2023-02-23T13:27:39;100565.16;;;15.33
67829;BMP280;54626;45.436;10.942;2023-02-23T13:29:39;100563.03;;;15.41
67829;BMP280;54626;45.436;10.942;2023-02-23T13:32:12;100559.63;;;15.50
67829;BMP280;54626;45.436;10.942;2023-02-23T13:37:12;100562.69;;;15.37
67829;BMP280;54626;45.436;10.942;2023-02-23T13:47:52;100570.94;;;15.28
67829;BMP280;54626;45.436;10.942;2023-02-23T13:52:53;100568.72;;;15.26
67829;BMP280;54626;45.436;10.942;2023-02-23T13:58:12;100570.59;;;14.99
67829;BMP280;54626;45.436;10.942;2023-02-23T14:00:41;100575.66;;;15.18
67829;BMP280;54626;45.436;10.942;2023-02-23T14:03:20;100569.50;;;15.19
67829;BMP280;54626;45.436;10.942;2023-02-23T14:05:50;100568.28;;;15.13
67829;BMP280;54626;45.436;10.942;2023-02-23T14:08:24;100568.25;;;14.89
67829;BMP280;54626;45.436;10.942;2023-02-23T14:10:55;100568.38;;;14.98
67829;BMP280;54626;45.436;10.942;2023-02-23T14:16:12;100573.72;;;15.28
67829;BMP280;54626;45.436;10.942;2023-02-23T14:19:10;100572.75;;;15.33
67829;BMP280;54626;45.436;10.942;2023-02-23T14:21:46;100572.22;;;15.34
67829;BMP280;54626;45.436;10.942;2023-02-23T14:24:19;100571.78;;;15.38
67829;BMP280;54626;45.436;10.942;2023-02-23T14:32:44;100569.28;;;15.25
67829;BMP280;54626;45.436;10.942;2023-02-23T14:40:38;100568.16;;;15.28
67829;BMP280;54626;45.436;10.942;2023-02-23T14:45:58;100562.75;;;15.05
67829;BMP280;54626;45.436;10.942;2023-02-23T14:48:26;100571.63;;;15.11
67829;BMP280;54626;45.436;10.942;2023-02-23T14:51:14;100564.00;;;15.12
67829;BMP280;54626;45.436;10.942;2023-02-23T14:53:46;100568.38;;;15.22
67829;BMP280;54626;45.436;10.942;2023-02-23T14:56:22;100569.50;;;15.19
67829;BMP280;54626;45.436;10.942;2023-02-23T14:59:05;100561.94;;;15.12
67829;BMP280;54626;45.436;10.942;2023-02-23T15:01:36;100568.84;;;15.11
67829;BMP280;54626;45.436;10.942;2023-02-23T15:04:11;100566.56;;;14.93
67829;BMP280;54626;45.436;10.942;2023-02-23T15:06:40;100555.59;;;14.95
67829;BMP280;54626;45.436;10.942;2023-02-23T15:09:14;100563.19;;;14.95
67829;BMP280;54626;45.436;10.942;2023-02-23T15:11:50;100564.50;;;14.94
67829;BMP280;54626;45.436;10.942;2023-02-23T15:14:19;100564.41;;;14.77
67829;BMP280;54626;45.436;10.942;2023-02-23T15:16:54;100570.16;;;14.79
67829;BMP280;54626;45.436;10.942;2023-02-23T15:19:23;100566.31;;;14.74
67829;BMP280;54626;45.436;10.942;2023-02-23T15:21:53;100563.53;;;14.67
67829;BMP280;54626;45.436;10.942;2023-02-23T15:24:23;100555.44;;;14.61
67829;BMP280;54626;45.436;10.942;2023-02-23T15:26:56;100574.28;;;14.70
67829;BMP280;54626;45.436;10.942;2023-02-23T15:29:28;100570.59;;;14.68
67829;BMP280;54626;45.436;10.942;2023-02-23T15:32:12;100566.03;;;14.55
67829;BMP280;54626;45.436;10.942;2023-02-23T15:34:41;100557.53;;;14.46
67829;BMP280;54626;45.436;10.942;2023-02-23T15:37:41;100562.72;;;14.42
67829;BMP280;54626;45.436;10.942;2023-02-23T15:40:20;100569.66;;;14.26
67829;BMP280;54626;45.436;10.942;2023-02-23T15:42:54;100568.94;;;14.18
67829;BMP280;54626;45.436;10.942;2023-02-23T15:45:45;100568.78;;;14.16
67829;BMP280;54626;45.436;10.942;2023-02-23T15:48:21;100568.59;;;14.22
67829;BMP280;54626;45.436;10.942;2023-02-23T15:50:53;100566.22;;;14.11
67829;BMP280;54626;45.436;10.942;2023-02-23T15:53:29;100567.09;;;14.13
67829;BMP280;54626;45.436;10.942;2023-02-23T15:56:13;100568.78;;;14.16
67829;BMP280;54626;45.436;10.942;2023-02-23T15:58:48;100565.13;;;13.91
67829;BMP280;54626;45.436;10.942;2023-02-23T16:01:24;100557.41;;;13.75
67829;BMP280;54626;45.436;10.942;2023-02-23T16:06:52;100561.81;;;13.78
67829;BMP280;54626;45.436;10.942;2023-02-23T16:12:02;100557.75;;;13.71
67829;BMP280;54626;45.436;10.942;2023-02-23T16:20:12;100550.53;;;13.54
67829;BMP280;54626;45.436;10.942;2023-02-23T16:22:41;100555.91;;;13.52
67829;BMP280;54626;45.436;10.942;2023-02-23T16:25:21;100549.06;;;13.45
67829;BMP280;54626;45.436;10.942;2023-02-23T16:27:55;100545.00;;;13.39
67829;BMP280;54626;45.436;10.942;2023-02-23T16:33:22;100546.31;;;13.30
67829;BMP280;54626;45.436;10.942;2023-02-23T16:35:52;100545.94;;;13.26